CheckWX is a tool to help pilots better visualize weather data.  It is not intended as a substitute for an official pre-flight weather briefing.

08:39:47 UTC

KDEW METAR
Deer Park Airport
Deer Park, Washington, USA
Current

47 mins ago

KDEW 120753Z AUTO 6SM UP BR OVC006 01/M01 A2988 RMK AO2 UPB28E41B51SNE28 SLP138 P0003 T00061006 400061017
Observed
Dec-12 @ 07:53 UTC
Visibility
6 SM
Flight Rules
IFR
Conditions
Mist, Unknown precipitation
Cloud Levels
  • Overcast at 600' AGL
Temperature
C / 34°F
Dewpoint
-1°C / 30°F
Humidity
87%
Altimeter
29.88" Hg
Pressure
1011.82 hPa
Current Rain
0.03"
Previous

55 mins ago

KDEW 120745Z AUTO 5SM BR OVC006 01/M01 A2988 RMK AO2 UPB28E41SNE28 P0003 T00061006
Observed
Dec-12 @ 07:45 UTC
Visibility
5 SM
Flight Rules
IFR
Conditions
Mist
Cloud Levels
  • Overcast at 600' AGL
Temperature
C / 34°F
Dewpoint
-1°C / 30°F
Humidity
87%
Altimeter
29.88" Hg
Pressure
1011.82 hPa
Current Rain
0.03"
Previous

1 hour ago

KDEW 120717Z AUTO 00000KT 3SM -SN BR OVC007 01/M01 A2990 RMK AO2 P0002 T00061006
Observed
Dec-12 @ 07:17 UTC
Visibility
3 SM
Flight Rules
IFR
Conditions
Light Snow, Mist
Cloud Levels
  • Overcast at 700' AGL
Temperature
C / 34°F
Dewpoint
-1°C / 30°F
Humidity
87%
Altimeter
29.9" Hg
Pressure
1012.52 hPa
Current Rain
0.02"